Portada
METAR-TAF:

METAR-TAF

Aeropuertos :

Lar, Irán

latitud: 27-40-26N, longitud: 054-22-53E, altitud: 792 m

Observación

El informe se hizo hace 1 hora y 4 minutos, a las 21:00 UTC
Viento calma
Temperatura 18°C
Humedad 73%
Presión 1014 hPa
Visibilidad 10 km o más
sin nubes por debajo de 1500 m y sin presencia de cumulonimbus.

METAR: OISL 082100Z 00000KT CAVOK 18/13 Q1014

Hora: 02:34 (22:04 UTC)

Pronóstico

El informe se hizo hace 4 horas y 49 minutos, a las 17:15 UTC
Pronóstico válido del 08 a las 18 UTC al 09 a las 24 UTC
Viento 8 kt del sur-suroeste
Visibilidad: 8000 m
Escasas nubes a una altura de 4000 ft
Temporalmente
del 09 a las 09 UTC al 09 a las 15 UTC
Viento 16 kt del oeste
Visibilidad: 5000 m
Escasas nubes a una altura de 3000 ft, Cumulonimbus.
Nubes dispersas a una altura de 3500 ft
Nubes dispersas a una altura de 10000 ft
chaparrones de lluvia

TAF: OISL 081715Z 0818/0924 21008KT 8000 FEW040 TEMPO 0909/0915 27016KT 5000 SHRA FEW030CB SCT035 SCT100

Observaciones y pronósticos meteorológicos de más de 4000 aeropuertos (mensajes METAR y TAF).

Los puntos amarillos y rojos representan las estaciones disponibles.

Ponga el ratón en el punto deseado para ver el nombre de la estación.

Haga clic para ver las observaciones y los pronósticos meteorológicos.

Para cambiar el mapa : haga clic en los botones verdes con una cruz de color negro para hacer un zoom, en el botón verde con un guión para alejar o en las flechas verdes para mapas adyacentes.


METAR-TAF: